Pride Of Canterbury — MPQZ6 — position and weather

sailwx.info

Track history (hours):
 
Tides and Currents Weather Stations Pressure Air Temp Water Temp Dewpoint Dewpoint Depression Visibility Wind Speed Wind Dir Waves Ship Positions

Pride Of Canterbury

Operator: P & O Ferries

Last reported at 2017-Dec-11 17:00 UTC. Time now 2017-Dec-12 04:28 UTC.
Position N 50°59' E 001°42'.

Length 180 m; draft 5.7 m.

Type: Passenger vessel. MMSI: 232001060.

Date/timePositionNaut miles runAvg speedWind from/ knotsBaromVisibWave heightAir tempDewpointWater temp
2017-Dec-11 17:00N 50°59' E 001°42'1 2.9
2017-Dec-11 16:31N 50°58' E 001°40'612.1
2017-Dec-11 16:00N 51°01' E 001°32'816.1
2017-Dec-11 15:30N 51°06' E 001°23'2 2.6
2017-Dec-11 14:45N 51°07' E 001°20'0 0.0
2017-Dec-11 12:57N 51°07' E 001°20'2 5.0
2017-Dec-11 12:30N 51°07' E 001°23'2 4.1
2017-Dec-11 12:00N 51°07' E 001°26'1 1.1
2017-Dec-11 11:31N 51°07' E 001°26'5 9.6
2017-Dec-11 11:00N 51°04' E 001°32'714.6
2017-Dec-11 10:31N 51°00' E 001°42'612.6
2017-Dec-11 10:01N 50°58' E 001°51'0 0.1
2017-Dec-11 09:26N 50°58' E 001°51'0 0.1
2017-Dec-11 08:55N 50°58' E 001°51'4 8.7
2017-Dec-11 08:30N 50°58' E 001°45'613.3
2017-Dec-11 08:00N 50°59' E 001°35'816.2
2017-Dec-11 07:30N 51°05' E 001°26'4 4.3
2017-Dec-11 06:28N 51°07' E 001°20'1 1.7
2017-Dec-11 06:00N 51°07' E 001°21'4 7.3
2017-Dec-11 05:31N 51°06' E 001°27'918.4
2017-Dec-11 05:01N 51°01' E 001°39'815.7
2017-Dec-11 04:31N 50°58' E 001°51'0 0.5
2017-Dec-11 04:00N 50°58' E 001°51'0 1.0
2017-Dec-11 03:29N 50°58' E 001°50'816.3
2017-Dec-11 03:00N 51°00' E 001°38'816.9
2017-Dec-11 02:30N 51°05' E 001°27'5 8.6
2017-Dec-11 01:55N 51°07' E 001°20'0 0.0
2017-Dec-11 01:29N 51°07' E 001°20'613.0
2017-Dec-11 01:00N 51°04' E 001°28'918.9
2017-Dec-11 00:31N 50°59' E 001°42'611.4
2017-Dec-10 23:58N 50°58' E 001°51'0 0.0
2017-Dec-10 23:26N 50°58' E 001°51'1 3.5
2017-Dec-10 23:00N 50°58' E 001°49'815.8
2017-Dec-10 22:30N 51°00' E 001°36'918.2
2017-Dec-10 22:00N 51°05' E 001°25'4 4.8
2017-Dec-10 21:15N 51°07' E 001°20'0 0.0
2017-Dec-10 20:53N 51°07' E 001°20'0 1.0
2017-Dec-10 20:30N 51°07' E 001°21'816.3
2017-Dec-10 20:01N 51°04' E 001°33'917.4
2017-Dec-10 19:31N 50°59' E 001°43'510.3
2017-Dec-10 19:01N 50°58' E 001°51'0 0.0
2017-Dec-10 18:30N 50°58' E 001°51'0 0.0
2017-Dec-10 18:00N 50°58' E 001°51'510.1
2017-Dec-10 17:30N 50°58' E 001°43'1 2.2
2017-Dec-10 17:00N 50°59' E 001°42'1 2.0
2017-Dec-10 16:31N 50°59' E 001°41'1 1.3
2017-Dec-10 16:00N 50°59' E 001°42'2 3.5
2017-Dec-10 15:30N 50°58' E 001°40'0 0.9
2017-Dec-10 15:00N 50°58' E 001°40'0 0.9
2017-Dec-10 14:30N 50°58' E 001°41'1 1.7
2017-Dec-10 14:00N 50°58' E 001°42'1 1.4
2017-Dec-10 13:30N 50°58' E 001°43'2 4.1
2017-Dec-10 13:00N 50°58' E 001°40'1 1.7
2017-Dec-10 12:30N 50°58' E 001°39'815.4
2017-Dec-10 12:01N 51°03' E 001°29'7 5.8
2017-Dec-10 10:45N 51°07' E 001°20'0 0.6
2017-Dec-10 10:30N 51°07' E 001°20'815.3
2017-Dec-10 10:01N 51°04' E 001°31'918.2
2017-Dec-10 09:31N 50°59' E 001°43'5 8.7
2017-Dec-10 08:55N 50°58' E 001°51'0 0.0
2017-Dec-10 08:29N 50°58' E 001°51'1 1.5
2017-Dec-10 08:00N 50°58' E 001°50'816.7
2017-Dec-10 07:31N 50°60' E 001°37'917.3
2017-Dec-10 07:00N 51°05' E 001°26'4 6.8
2017-Dec-10 06:22N 51°07' E 001°20'0 0.0
2017-Dec-10 05:59N 51°07' E 001°20'0 0.0
2017-Dec-10 05:30N 51°07' E 001°20'1 2.2
2017-Dec-10 05:00N 51°07' E 001°22'917.5
2017-Dec-10 04:30N 51°03' E 001°34'917.6
2017-Dec-10 04:01N 50°58' E 001°46'4 7.4
2017-Dec-10 03:30N 50°58' E 001°51'0 0.0
2017-Dec-10 03:00N 50°58' E 001°51'0 0.0
2017-Dec-10 02:30N 50°58' E 001°51'4 8.3
2017-Dec-10 02:00N 50°58' E 001°45'816.1
2017-Dec-10 01:30N 50°60' E 001°32'917.4
2017-Dec-10 01:01N 51°06' E 001°23'2 4.7
2017-Dec-10 00:29N 51°07' E 001°20'0 0.3
2017-Dec-10 00:00N 51°07' E 001°20'815.5
2017-Dec-09 23:30N 51°05' E 001°32'917.9
2017-Dec-09 23:00N 50°59' E 001°43'5 8.0
2017-Dec-09 22:21N 50°58' E 001°51'0 0.0
2017-Dec-09 21:59N 50°58' E 001°51'0 0.5
2017-Dec-09 21:29N 50°58' E 001°51'714.6
2017-Dec-09 21:00N 50°60' E 001°40'917.7
2017-Dec-09 20:31N 51°03' E 001°27'6 4.8
2017-Dec-09 19:16N 51°07' E 001°20'313.1
2017-Dec-09 19:01N 51°06' E 001°25'917.8
2017-Dec-09 18:31N 51°02' E 001°37'816.3
2017-Dec-09 18:01N 50°58' E 001°49'1 2.4
2017-Dec-09 17:29N 50°58' E 001°51'0 0.8
2017-Dec-09 17:00N 50°58' E 001°50'918.2
2017-Dec-09 16:31N 51°01' E 001°37'1019.1
2017-Dec-09 16:01N 51°05' E 001°23'3 2.5
2017-Dec-09 14:52N 51°07' E 001°20'412.3
2017-Dec-09 14:31N 51°06' E 001°27'917.6
2017-Dec-09 14:00N 51°01' E 001°38'815.8
2017-Dec-09 13:31N 50°58' E 001°50'1 1.4
2017-Dec-09 12:58N 50°58' E 001°51'0 0.5
2017-Dec-09 12:29N 50°58' E 001°51'715.6
2017-Dec-09 12:00N 50°59' E 001°39'918.0
2017-Dec-09 11:30N 51°04' E 001°27'5 4.4
2017-Dec-09 10:16N 51°07' E 001°20'2 8.3
2017-Dec-09 10:00N 51°07' E 001°24'918.1
2017-Dec-09 09:30N 51°02' E 001°36'917.4
2017-Dec-09 09:00N 50°58' E 001°48'2 3.6
2017-Dec-09 08:29N 50°58' E 001°51'0 0.1
2017-Dec-09 07:53N 50°58' E 001°51'514.0
2017-Dec-09 07:30N 50°58' E 001°42'918.3
2017-Dec-09 07:01N 51°03' E 001°30'8 4.2
2017-Dec-09 05:12N 51°07' E 001°20'2 8.7
2017-Dec-09 05:01N 51°07' E 001°23'815.2
2017-Dec-09 04:30N 51°03' E 001°33'816.4
2017-Dec-09 04:01N 50°59' E 001°44'4 8.3
2017-Dec-09 03:29N 50°58' E 001°51'0 0.0
2017-Dec-09 03:00N 50°58' E 001°51'0 0.0
2017-Dec-09 02:29N 50°58' E 001°51'613.7
2017-Dec-09 02:00N 50°59' E 001°41'917.5
2017-Dec-09 01:30N 51°03' E 001°29'711.3
2017-Dec-09 00:54N 51°07' E 001°20'0 0.0
2017-Dec-09 00:27N 51°07' E 001°20'0 0.6
2017-Dec-09 00:00N 51°07' E 001°20'816.5
2017-Dec-08 23:31N 51°03' E 001°32'917.2
2017-Dec-08 23:00N 50°59' E 001°44'5 9.5
2017-Dec-08 22:30N 50°58' E 001°51'0 0.0
2017-Dec-08 22:00N 50°58' E 001°51'611.1
2017-Dec-08 21:30N 50°58' E 001°42'917.0
2017-Dec-08 21:00N 51°02' E 001°30'8 6.2
2017-Dec-08 19:41N 51°07' E 001°20'1 4.7
2017-Dec-08 19:30N 51°07' E 001°21'917.6
2017-Dec-08 19:00N 51°03' E 001°34'917.5
2017-Dec-08 18:31N 50°58' E 001°45'4 6.7
2017-Dec-08 17:58N 50°58' E 001°51'0 0.3
2017-Dec-08 17:26N 50°58' E 001°51'716.1
2017-Dec-08 17:00N 50°59' E 001°40'918.7
2017-Dec-08 16:30N 51°04' E 001°27'6 4.5
2017-Dec-08 15:15N 51°07' E 001°20'2 9.7
2017-Dec-08 15:01N 51°07' E 001°24'714.6
2017-Dec-08 14:31N 51°03' E 001°34'714.3
2017-Dec-08 14:00N 50°59' E 001°43'5 5.2
2017-Dec-08 13:04N 50°58' E 001°51'0 0.0
2017-Dec-08 12:58N 50°58' E 001°51'1 2.6
2017-Dec-08 12:30N 50°58' E 001°49'816.8
2017-Dec-08 12:00N 50°59' E 001°36'918.0
2017-Dec-08 11:30N 51°05' E 001°25'4 3.3
2017-Dec-08 10:21N 51°07' E 001°20'513.5
2017-Dec-08 10:00N 51°06' E 001°27'917.5
2017-Dec-08 09:31N 51°01' E 001°39'816.1
2017-Dec-08 09:01N 50°58' E 001°51'0 0.5
2017-Dec-08 08:30N 50°58' E 001°51'2 4.0
2017-Dec-08 08:00N 50°58' E 001°48'816.9
2017-Dec-08 07:30N 51°00' E 001°35'918.7
2017-Dec-08 07:01N 51°06' E 001°24'3 3.1
2017-Dec-08 06:09N 51°07' E 001°20'1 3.2
2017-Dec-08 06:00N 51°07' E 001°21'817.0
2017-Dec-08 05:30N 51°04' E 001°33'917.1
2017-Dec-08 05:01N 50°59' E 001°44'5 7.3
2017-Dec-08 04:24N 50°58' E 001°51'0 0.2
2017-Dec-08 03:59N 50°58' E 001°51'817.1
2017-Dec-08 03:30N 50°59' E 001°38'918.7
2017-Dec-08 03:00N 51°05' E 001°26'5 3.8
2017-Dec-08 01:47N 51°07' E 001°20'2 8.6
2017-Dec-08 01:30N 51°07' E 001°24'917.4
2017-Dec-08 01:01N 51°02' E 001°36'816.9
2017-Dec-08 00:30N 50°58' E 001°47'2 3.9
2017-Dec-07 23:55N 50°58' E 001°51'0 0.0
2017-Dec-07 23:30N 50°58' E 001°51'713.5
2017-Dec-07 23:00N 50°59' E 001°41'917.5
2017-Dec-07 22:30N 51°04' E 001°29'713.4
2017-Dec-07 22:00N 51°07' E 001°20'0 0.0
2017-Dec-07 21:14N 51°07' E 001°20'0 1.1
2017-Dec-07 21:00N 51°07' E 001°20'917.4
2017-Dec-07 20:31N 51°03' E 001°33'918.3
2017-Dec-07 20:01N 50°58' E 001°45'4 8.6
2017-Dec-07 19:30N 50°58' E 001°52'0 0.0
2017-Dec-07 19:00N 50°58' E 001°52'4 8.8
2017-Dec-07 18:30N 50°58' E 001°45'916.4
2017-Dec-07 17:58N 51°01' E 001°32'816.7
2017-Dec-07 17:30N 51°06' E 001°23'2 1.6
2017-Dec-07 16:21N 51°07' E 001°20'412.3
2017-Dec-07 16:00N 51°06' E 001°27'815.4
2017-Dec-07 15:31N 51°02' E 001°37'714.6
2017-Dec-07 15:01N 50°58' E 001°47'3 6.4
2017-Dec-07 14:30N 50°58' E 001°52'0 0.0
2017-Dec-07 13:59N 50°58' E 001°52'5 9.6
2017-Dec-07 13:30N 50°58' E 001°44'917.0
2017-Dec-07 13:00N 51°02' E 001°33'816.2
2017-Dec-07 12:31N 51°07' E 001°22'2 1.6
2017-Dec-07 11:34N 51°07' E 001°20'0 0.1
2017-Dec-07 11:14N 51°07' E 001°20'0 0.7
2017-Dec-07 11:00N 51°07' E 001°20'3 5.8
2017-Dec-07 10:30N 51°07' E 001°25'815.0
2017-Dec-07 10:00N 51°03' E 001°35'917.3
2017-Dec-07 09:31N 50°58' E 001°46'3 6.3
2017-Dec-07 09:00N 50°58' E 001°51'0 0.0
2017-Dec-07 08:30N 50°58' E 001°51'4 7.5
2017-Dec-07 08:00N 50°58' E 001°45'815.3
2017-Dec-07 07:31N 51°01' E 001°34'815.7
2017-Dec-07 07:01N 51°05' E 001°24'3 2.9
2017-Dec-07 05:53N 51°07' E 001°20'1 2.5
2017-Dec-07 05:30N 51°07' E 001°22'816.6
2017-Dec-07 05:00N 51°03' E 001°33'917.3
2017-Dec-07 04:31N 50°58' E 001°44'5 9.1
2017-Dec-07 04:00N 50°58' E 001°52'0 0.0
2017-Dec-07 03:30N 50°58' E 001°52'0 0.0
2017-Dec-07 03:00N 50°58' E 001°52'913.7
2017-Dec-07 02:21N 51°00' E 001°38'717.3
2017-Dec-07 01:57N 51°04' E 001°29'611.4
2017-Dec-07 01:23N 51°07' E 001°20'0 0.0
2017-Dec-07 01:00N 51°07' E 001°20'0 0.4
2017-Dec-07 00:30N 51°07' E 001°20'714.8
2017-Dec-07 00:01N 51°04' E 001°30'917.5
2017-Dec-06 23:30N 50°59' E 001°42'611.3
2017-Dec-06 23:00N 50°58' E 001°51'0 0.0
2017-Dec-06 22:30N 50°58' E 001°51'3 5.7
2017-Dec-06 22:00N 50°58' E 001°47'816.0
2017-Dec-06 21:31N 51°00' E 001°35'917.4
2017-Dec-06 21:00N 51°06' E 001°24'  
2017-Dec-04 10:30N 51°07' E 001°20'816.6
2017-Dec-04 10:01N 51°04' E 001°32'917.8
2017-Dec-04 09:30N 50°59' E 001°44'5 9.6
2017-Dec-04 08:59N 50°58' E 001°52'0 0.0
2017-Dec-04 08:30N 50°58' E 001°52'1 1.1
2017-Dec-04 08:00N 50°58' E 001°51'714.6
2017-Dec-04 07:31N 50°59' E 001°39'917.1
2017-Dec-04 07:00N 51°04' E 001°28'611.4
2017-Dec-04 06:29N 51°07' E 001°20'0 0.0
2017-Dec-04 05:59N 51°07' E 001°20'0 0.0
2017-Dec-04 05:28N 51°07' E 001°20'4 8.1
2017-Dec-04 05:00N 51°06' E 001°26'917.8
2017-Dec-04 04:31N 51°01' E 001°38'816.8
2017-Dec-04 04:01N 50°58' E 001°50'1 2.1
2017-Dec-04 03:30N 50°58' E 001°52'0 0.0
2017-Dec-04 03:00N 50°58' E 001°52'0 0.0
2017-Dec-04 02:30N 50°58' E 001°52'5 9.3
2017-Dec-04 02:00N 50°58' E 001°44'918.6
2017-Dec-04 01:30N 51°03' E 001°32'917.5
2017-Dec-04 01:00N 51°07' E 001°20'0 0.2
2017-Dec-04 00:30N 51°07' E 001°20'1 2.4
2017-Dec-04 00:01N 51°07' E 001°22'816.3
2017-Dec-03 23:30N 51°05' E 001°34'917.2
2017-Dec-03 23:00N 50°59' E 001°44'5 9.4
2017-Dec-03 22:29N 50°58' E 001°52'0 0.0
2017-Dec-03 22:00N 50°58' E 001°52'1 2.2
2017-Dec-03 21:30N 50°58' E 001°50'816.4
2017-Dec-03 21:01N 51°01' E 001°38'815.9
2017-Dec-03 20:30N 51°05' E 001°27'5 7.7
2017-Dec-03 19:52N 51°07' E 001°20'0 0.0
2017-Dec-03 19:26N 51°07' E 001°20'4 9.3
2017-Dec-03 19:00N 51°06' E 001°26'917.8
2017-Dec-03 18:30N 51°01' E 001°38'816.7
2017-Dec-03 18:00N 50°58' E 001°50'0 0.8
2017-Dec-03 17:30N 50°58' E 001°51'1 1.7
2017-Dec-03 17:00N 50°58' E 001°50'815.6
2017-Dec-03 16:30N 50°59' E 001°37'918.1
2017-Dec-03 16:01N 51°06' E 001°27'5 4.4
2017-Dec-03 14:56N 51°07' E 001°20'512.9
2017-Dec-03 14:31N 51°06' E 001°28'917.3
2017-Dec-03 14:01N 51°01' E 001°40'714.8
2017-Dec-03 13:30N 50°58' E 001°51'1 1.0
2017-Dec-03 12:59N 50°58' E 001°52'0 0.1
2017-Dec-03 12:30N 50°58' E 001°52'816.3
2017-Dec-03 12:00N 50°58' E 001°39'918.5
2017-Dec-03 11:30N 51°04' E 001°28'6 5.1
2017-Dec-03 10:26N 51°07' E 001°20'613.9
2017-Dec-03 10:01N 51°05' E 001°29'917.7
2017-Dec-03 09:31N 50°60' E 001°40'714.0
2017-Dec-03 09:01N 50°58' E 001°51'0 0.4
2017-Dec-03 08:30N 50°58' E 001°51'1 2.3
2017-Dec-03 08:00N 50°58' E 001°49'816.4
2017-Dec-03 07:30N 50°59' E 001°36'917.5
2017-Dec-03 07:00N 51°04' E 001°26'5 7.7
2017-Dec-03 06:24N 51°07' E 001°20'0 0.0
2017-Dec-03 05:14N 51°07' E 001°20'1 5.4
2017-Dec-03 05:00N 51°07' E 001°22'917.4
2017-Dec-03 04:31N 51°05' E 001°35'816.3
2017-Dec-03 04:00N 50°59' E 001°44'5 9.8
2017-Dec-03 03:30N 50°58' E 001°51'0 0.0
2017-Dec-03 03:00N 50°58' E 001°51'0 0.0
2017-Dec-03 02:30N 50°58' E 001°51'510.5
2017-Dec-03 02:00N 50°58' E 001°43'917.0
2017-Dec-03 01:30N 51°02' E 001°32'915.9
2017-Dec-03 00:57N 51°07' E 001°20'0 0.1
2017-Dec-03 00:19N 51°07' E 001°20'0 0.8
2017-Dec-02 23:59N 51°07' E 001°20'715.1
2017-Dec-02 23:30N 51°05' E 001°32'917.8
2017-Dec-02 23:01N 50°60' E 001°42'610.4
2017-Dec-02 22:28N 50°58' E 001°51'0 0.0
2017-Dec-02 22:00N 50°58' E 001°51'1 2.2
2017-Dec-02 21:30N 50°58' E 001°49'1019.1
2017-Dec-02 21:01N 50°60' E 001°34'918.6
2017-Dec-02 20:31N 51°06' E 001°23'3 3.8
2017-Dec-02 19:50N 51°07' E 001°20'0 0.0
2017-Dec-02 19:26N 51°07' E 001°20'511.7
2017-Dec-02 19:00N 51°06' E 001°28'918.5
2017-Dec-02 18:30N 51°01' E 001°40'714.9
2017-Dec-02 18:01N 50°58' E 001°51'0 0.4
2017-Dec-02 17:30N 50°58' E 001°51'1 1.8
2017-Dec-02 17:01N 50°58' E 001°50'815.8
2017-Dec-02 16:31N 50°60' E 001°37'917.9
2017-Dec-02 16:00N 51°05' E 001°26'4 8.5
2017-Dec-02 15:30N 51°07' E 001°20'0 0.2
2017-Dec-02 14:52N 51°07' E 001°20'514.1
2017-Dec-02 14:31N 51°06' E 001°28'918.5
2017-Dec-02 14:01N 51°01' E 001°40'714.5
2017-Dec-02 13:31N 50°58' E 001°51'0 0.1
2017-Dec-02 12:58N 50°58' E 001°51'3 5.5
2017-Dec-02 12:30N 50°58' E 001°47'918.1
2017-Dec-02 12:00N 51°01' E 001°34'918.4
2017-Dec-02 11:30N 51°06' E 001°21'1 1.1
2017-Dec-02 10:30N 51°07' E 001°20'714.0
2017-Dec-02 10:01N 51°06' E 001°31'917.3
2017-Dec-02 09:30N 51°01' E 001°42'612.3
2017-Dec-02 09:01N 50°58' E 001°51'0 0.3
2017-Dec-02 08:30N 50°58' E 001°51'0 0.2
2017-Dec-02 07:59N 50°58' E 001°51'715.3
2017-Dec-02 07:31N 50°59' E 001°40'917.4
2017-Dec-02 07:00N 51°04' E 001°28'611.5
2017-Dec-02 06:29N 51°07' E 001°20'0 0.0
2017-Dec-02 05:31N 51°07' E 001°20'0 0.0
2017-Dec-02 05:24N 51°07' E 001°20'3 8.1
2017-Dec-02 05:00N 51°06' E 001°25'714.9
2017-Dec-02 04:30N 51°02' E 001°34'815.7
2017-Dec-02 04:00N 50°58' E 001°45'4 7.1
2017-Dec-02 03:30N 50°58' E 001°51'0 0.0
2017-Dec-02 02:59N 50°58' E 001°51'0 0.1
2017-Dec-02 02:30N 50°58' E 001°51'713.6
2017-Dec-02 02:00N 50°58' E 001°40'816.9
2017-Dec-02 01:30N 51°02' E 001°29'714.2
2017-Dec-02 00:59N 51°07' E 001°20'0 0.0
2017-Dec-02 00:30N 51°07' E 001°20'1 1.6
2017-Dec-02 00:00N 51°07' E 001°21'816.3
2017-Dec-01 23:30N 51°05' E 001°34'817.0
2017-Dec-01 23:00N 50°59' E 001°44'5 8.8
2017-Dec-01 22:28N 50°58' E 001°51'0 0.0
2017-Dec-01 21:58N 50°58' E 001°51'1737.7
2017-Dec-01 21:30N 51°04' E 001°25'4 7.1
2017-Dec-01 21:00N 51°02' E 001°30'7 4.8
2017-Dec-01 19:36N 51°07' E 001°22'217.6
2017-Dec-01 19:30N 51°07' E 001°25'917.3
2017-Dec-01 19:00N 51°02' E 001°37'917.1
2017-Dec-01 18:30N 50°58' E 001°49'1 2.7
2017-Dec-01 18:00N 50°58' E 001°51'0 0.2
2017-Dec-01 17:27N 50°58' E 001°51'613.4
2017-Dec-01 17:01N 50°58' E 001°42'  
Track history (hours):
 
Tides and Currents Weather Stations Pressure Air Temp Water Temp Dewpoint Dewpoint Depression Visibility Wind Speed Wind Dir Waves Ship Positions

Pride Of Canterbury

Operator: P & O Ferries

Last reported at 2017-Dec-11 17:00 UTC. Time now 2017-Dec-12 04:28 UTC.
Position N 50°59' E 001°42'.

Length 180 m; draft 5.7 m.

Type: Passenger vessel. MMSI: 232001060.

Date/timePositionNaut miles runAvg speedWind from/ knotsBaromVisibWave heightAir tempDewpointWater temp
2017-Dec-11 17:00N 50°59' E 001°42'1 2.9
2017-Dec-11 16:31N 50°58' E 001°40'612.1
2017-Dec-11 16:00N 51°01' E 001°32'816.1
2017-Dec-11 15:30N 51°06' E 001°23'2 2.6
2017-Dec-11 14:45N 51°07' E 001°20'0 0.0
2017-Dec-11 12:57N 51°07' E 001°20'2 5.0
2017-Dec-11 12:30N 51°07' E 001°23'2 4.1
2017-Dec-11 12:00N 51°07' E 001°26'1 1.1
2017-Dec-11 11:31N 51°07' E 001°26'5 9.6
2017-Dec-11 11:00N 51°04' E 001°32'714.6
2017-Dec-11 10:31N 51°00' E 001°42'612.6
2017-Dec-11 10:01N 50°58' E 001°51'0 0.1
2017-Dec-11 09:26N 50°58' E 001°51'0 0.1
2017-Dec-11 08:55N 50°58' E 001°51'4 8.7
2017-Dec-11 08:30N 50°58' E 001°45'613.3
2017-Dec-11 08:00N 50°59' E 001°35'816.2
2017-Dec-11 07:30N 51°05' E 001°26'4 4.3
2017-Dec-11 06:28N 51°07' E 001°20'1 1.7
2017-Dec-11 06:00N 51°07' E 001°21'4 7.3
2017-Dec-11 05:31N 51°06' E 001°27'918.4
2017-Dec-11 05:01N 51°01' E 001°39'815.7
2017-Dec-11 04:31N 50°58' E 001°51'0 0.5
2017-Dec-11 04:00N 50°58' E 001°51'0 1.0
2017-Dec-11 03:29N 50°58' E 001°50'816.3
2017-Dec-11 03:00N 51°00' E 001°38'816.9
2017-Dec-11 02:30N 51°05' E 001°27'5 8.6
2017-Dec-11 01:55N 51°07' E 001°20'0 0.0
2017-Dec-11 01:29N 51°07' E 001°20'613.0
2017-Dec-11 01:00N 51°04' E 001°28'918.9
2017-Dec-11 00:31N 50°59' E 001°42'611.4
2017-Dec-10 23:58N 50°58' E 001°51'0 0.0
2017-Dec-10 23:26N 50°58' E 001°51'1 3.5
2017-Dec-10 23:00N 50°58' E 001°49'815.8
2017-Dec-10 22:30N 51°00' E 001°36'918.2
2017-Dec-10 22:00N 51°05' E 001°25'4 4.8
2017-Dec-10 21:15N 51°07' E 001°20'0 0.0
2017-Dec-10 20:53N 51°07' E 001°20'0 1.0
2017-Dec-10 20:30N 51°07' E 001°21'816.3
2017-Dec-10 20:01N 51°04' E 001°33'917.4
2017-Dec-10 19:31N 50°59' E 001°43'510.3
2017-Dec-10 19:01N 50°58' E 001°51'0 0.0
2017-Dec-10 18:30N 50°58' E 001°51'0 0.0
2017-Dec-10 18:00N 50°58' E 001°51'510.1
2017-Dec-10 17:30N 50°58' E 001°43'1 2.2
2017-Dec-10 17:00N 50°59' E 001°42'1 2.0
2017-Dec-10 16:31N 50°59' E 001°41'1 1.3
2017-Dec-10 16:00N 50°59' E 001°42'2 3.5
2017-Dec-10 15:30N 50°58' E 001°40'0 0.9
2017-Dec-10 15:00N 50°58' E 001°40'0 0.9
2017-Dec-10 14:30N 50°58' E 001°41'1 1.7
2017-Dec-10 14:00N 50°58' E 001°42'1 1.4
2017-Dec-10 13:30N 50°58' E 001°43'2 4.1
2017-Dec-10 13:00N 50°58' E 001°40'1 1.7
2017-Dec-10 12:30N 50°58' E 001°39'815.4
2017-Dec-10 12:01N 51°03' E 001°29'7 5.8
2017-Dec-10 10:45N 51°07' E 001°20'0 0.6
2017-Dec-10 10:30N 51°07' E 001°20'815.3
2017-Dec-10 10:01N 51°04' E 001°31'918.2
2017-Dec-10 09:31N 50°59' E 001°43'5 8.7
2017-Dec-10 08:55N 50°58' E 001°51'0 0.0
2017-Dec-10 08:29N 50°58' E 001°51'1 1.5
2017-Dec-10 08:00N 50°58' E 001°50'816.7
2017-Dec-10 07:31N 50°60' E 001°37'917.3
2017-Dec-10 07:00N 51°05' E 001°26'4 6.8
2017-Dec-10 06:22N 51°07' E 001°20'0 0.0
2017-Dec-10 05:59N 51°07' E 001°20'0 0.0
2017-Dec-10 05:30N 51°07' E 001°20'1 2.2
2017-Dec-10 05:00N 51°07' E 001°22'917.5
2017-Dec-10 04:30N 51°03' E 001°34'917.6
2017-Dec-10 04:01N 50°58' E 001°46'4 7.4
2017-Dec-10 03:30N 50°58' E 001°51'0 0.0
2017-Dec-10 03:00N 50°58' E 001°51'0 0.0
2017-Dec-10 02:30N 50°58' E 001°51'4 8.3
2017-Dec-10 02:00N 50°58' E 001°45'816.1
2017-Dec-10 01:30N 50°60' E 001°32'917.4
2017-Dec-10 01:01N 51°06' E 001°23'2 4.7
2017-Dec-10 00:29N 51°07' E 001°20'0 0.3
2017-Dec-10 00:00N 51°07' E 001°20'815.5
2017-Dec-09 23:30N 51°05' E 001°32'917.9
2017-Dec-09 23:00N 50°59' E 001°43'5 8.0
2017-Dec-09 22:21N 50°58' E 001°51'0 0.0
2017-Dec-09 21:59N 50°58' E 001°51'0 0.5
2017-Dec-09 21:29N 50°58' E 001°51'714.6
2017-Dec-09 21:00N 50°60' E 001°40'917.7
2017-Dec-09 20:31N 51°03' E 001°27'6 4.8
2017-Dec-09 19:16N 51°07' E 001°20'313.1
2017-Dec-09 19:01N 51°06' E 001°25'917.8
2017-Dec-09 18:31N 51°02' E 001°37'816.3
2017-Dec-09 18:01N 50°58' E 001°49'1 2.4
2017-Dec-09 17:29N 50°58' E 001°51'0 0.8
2017-Dec-09 17:00N 50°58' E 001°50'918.2
2017-Dec-09 16:31N 51°01' E 001°37'1019.1
2017-Dec-09 16:01N 51°05' E 001°23'3 2.5
2017-Dec-09 14:52N 51°07' E 001°20'412.3
2017-Dec-09 14:31N 51°06' E 001°27'917.6
2017-Dec-09 14:00N 51°01' E 001°38'815.8
2017-Dec-09 13:31N 50°58' E 001°50'1 1.4
2017-Dec-09 12:58N 50°58' E 001°51'0 0.5
2017-Dec-09 12:29N 50°58' E 001°51'715.6
2017-Dec-09 12:00N 50°59' E 001°39'918.0
2017-Dec-09 11:30N 51°04' E 001°27'5 4.4
2017-Dec-09 10:16N 51°07' E 001°20'2 8.3
2017-Dec-09 10:00N 51°07' E 001°24'918.1
2017-Dec-09 09:30N 51°02' E 001°36'917.4
2017-Dec-09 09:00N 50°58' E 001°48'2 3.6
2017-Dec-09 08:29N 50°58' E 001°51'0 0.1
2017-Dec-09 07:53N 50°58' E 001°51'514.0
2017-Dec-09 07:30N 50°58' E 001°42'918.3
2017-Dec-09 07:01N 51°03' E 001°30'8 4.2
2017-Dec-09 05:12N 51°07' E 001°20'2 8.7
2017-Dec-09 05:01N 51°07' E 001°23'815.2
2017-Dec-09 04:30N 51°03' E 001°33'816.4
2017-Dec-09 04:01N 50°59' E 001°44'4 8.3
2017-Dec-09 03:29N 50°58' E 001°51'0 0.0
2017-Dec-09 03:00N 50°58' E 001°51'0 0.0
2017-Dec-09 02:29N 50°58' E 001°51'613.7
2017-Dec-09 02:00N 50°59' E 001°41'917.5
2017-Dec-09 01:30N 51°03' E 001°29'711.3
2017-Dec-09 00:54N 51°07' E 001°20'0 0.0
2017-Dec-09 00:27N 51°07' E 001°20'0 0.6
2017-Dec-09 00:00N 51°07' E 001°20'816.5
2017-Dec-08 23:31N 51°03' E 001°32'917.2
2017-Dec-08 23:00N 50°59' E 001°44'5 9.5
2017-Dec-08 22:30N 50°58' E 001°51'0 0.0
2017-Dec-08 22:00N 50°58' E 001°51'611.1
2017-Dec-08 21:30N 50°58' E 001°42'917.0
2017-Dec-08 21:00N 51°02' E 001°30'8 6.2
2017-Dec-08 19:41N 51°07' E 001°20'1 4.7
2017-Dec-08 19:30N 51°07' E 001°21'917.6
2017-Dec-08 19:00N 51°03' E 001°34'917.5
2017-Dec-08 18:31N 50°58' E 001°45'4 6.7
2017-Dec-08 17:58N 50°58' E 001°51'0 0.3
2017-Dec-08 17:26N 50°58' E 001°51'716.1
2017-Dec-08 17:00N 50°59' E 001°40'918.7
2017-Dec-08 16:30N 51°04' E 001°27'6 4.5
2017-Dec-08 15:15N 51°07' E 001°20'2 9.7
2017-Dec-08 15:01N 51°07' E 001°24'714.6
2017-Dec-08 14:31N 51°03' E 001°34'714.3
2017-Dec-08 14:00N 50°59' E 001°43'5 5.2
2017-Dec-08 13:04N 50°58' E 001°51'0 0.0
2017-Dec-08 12:58N 50°58' E 001°51'1 2.6
2017-Dec-08 12:30N 50°58' E 001°49'816.8
2017-Dec-08 12:00N 50°59' E 001°36'918.0
2017-Dec-08 11:30N 51°05' E 001°25'4 3.3
2017-Dec-08 10:21N 51°07' E 001°20'513.5
2017-Dec-08 10:00N 51°06' E 001°27'917.5
2017-Dec-08 09:31N 51°01' E 001°39'816.1
2017-Dec-08 09:01N 50°58' E 001°51'0 0.5
2017-Dec-08 08:30N 50°58' E 001°51'2 4.0
2017-Dec-08 08:00N 50°58' E 001°48'816.9
2017-Dec-08 07:30N 51°00' E 001°35'918.7
2017-Dec-08 07:01N 51°06' E 001°24'3 3.1
2017-Dec-08 06:09N 51°07' E 001°20'1 3.2
2017-Dec-08 06:00N 51°07' E 001°21'817.0
2017-Dec-08 05:30N 51°04' E 001°33'917.1
2017-Dec-08 05:01N 50°59' E 001°44'5 7.3
2017-Dec-08 04:24N 50°58' E 001°51'0 0.2
2017-Dec-08 03:59N 50°58' E 001°51'817.1
2017-Dec-08 03:30N 50°59' E 001°38'918.7
2017-Dec-08 03:00N 51°05' E 001°26'5 3.8
2017-Dec-08 01:47N 51°07' E 001°20'2 8.6
2017-Dec-08 01:30N 51°07' E 001°24'917.4
2017-Dec-08 01:01N 51°02' E 001°36'816.9
2017-Dec-08 00:30N 50°58' E 001°47'2 3.9
2017-Dec-07 23:55N 50°58' E 001°51'0 0.0
2017-Dec-07 23:30N 50°58' E 001°51'713.5
2017-Dec-07 23:00N 50°59' E 001°41'917.5
2017-Dec-07 22:30N 51°04' E 001°29'713.4
2017-Dec-07 22:00N 51°07' E 001°20'0 0.0
2017-Dec-07 21:14N 51°07' E 001°20'0 1.1
2017-Dec-07 21:00N 51°07' E 001°20'917.4
2017-Dec-07 20:31N 51°03' E 001°33'918.3
2017-Dec-07 20:01N 50°58' E 001°45'4 8.6
2017-Dec-07 19:30N 50°58' E 001°52'0 0.0
2017-Dec-07 19:00N 50°58' E 001°52'4 8.8
2017-Dec-07 18:30N 50°58' E 001°45'916.4
2017-Dec-07 17:58N 51°01' E 001°32'816.7
2017-Dec-07 17:30N 51°06' E 001°23'2 1.6
2017-Dec-07 16:21N 51°07' E 001°20'412.3
2017-Dec-07 16:00N 51°06' E 001°27'815.4
2017-Dec-07 15:31N 51°02' E 001°37'714.6
2017-Dec-07 15:01N 50°58' E 001°47'3 6.4
2017-Dec-07 14:30N 50°58' E 001°52'0 0.0
2017-Dec-07 13:59N 50°58' E 001°52'5 9.6
2017-Dec-07 13:30N 50°58' E 001°44'917.0
2017-Dec-07 13:00N 51°02' E 001°33'816.2
2017-Dec-07 12:31N 51°07' E 001°22'2 1.6
2017-Dec-07 11:34N 51°07' E 001°20'0 0.1
2017-Dec-07 11:14N 51°07' E 001°20'0 0.7
2017-Dec-07 11:00N 51°07' E 001°20'3 5.8
2017-Dec-07 10:30N 51°07' E 001°25'815.0
2017-Dec-07 10:00N 51°03' E 001°35'917.3
2017-Dec-07 09:31N 50°58' E 001°46'3 6.3
2017-Dec-07 09:00N 50°58' E 001°51'0 0.0
2017-Dec-07 08:30N 50°58' E 001°51'4 7.5
2017-Dec-07 08:00N 50°58' E 001°45'815.3
2017-Dec-07 07:31N 51°01' E 001°34'815.7
2017-Dec-07 07:01N 51°05' E 001°24'3 2.9
2017-Dec-07 05:53N 51°07' E 001°20'1 2.5
2017-Dec-07 05:30N 51°07' E 001°22'816.6
2017-Dec-07 05:00N 51°03' E 001°33'917.3
2017-Dec-07 04:31N 50°58' E 001°44'5 9.1
2017-Dec-07 04:00N 50°58' E 001°52'0 0.0
2017-Dec-07 03:30N 50°58' E 001°52'0 0.0
2017-Dec-07 03:00N 50°58' E 001°52'913.7
2017-Dec-07 02:21N 51°00' E 001°38'717.3
2017-Dec-07 01:57N 51°04' E 001°29'611.4
2017-Dec-07 01:23N 51°07' E 001°20'0 0.0
2017-Dec-07 01:00N 51°07' E 001°20'0 0.4
2017-Dec-07 00:30N 51°07' E 001°20'714.8
2017-Dec-07 00:01N 51°04' E 001°30'917.5
2017-Dec-06 23:30N 50°59' E 001°42'611.3
2017-Dec-06 23:00N 50°58' E 001°51'0 0.0
2017-Dec-06 22:30N 50°58' E 001°51'3 5.7
2017-Dec-06 22:00N 50°58' E 001°47'816.0
2017-Dec-06 21:31N 51°00' E 001°35'917.4
2017-Dec-06 21:00N 51°06' E 001°24'  
2017-Dec-04 10:30N 51°07' E 001°20'816.6
2017-Dec-04 10:01N 51°04' E 001°32'917.8
2017-Dec-04 09:30N 50°59' E 001°44'5 9.6
2017-Dec-04 08:59N 50°58' E 001°52'0 0.0
2017-Dec-04 08:30N 50°58' E 001°52'1 1.1
2017-Dec-04 08:00N 50°58' E 001°51'714.6
2017-Dec-04 07:31N 50°59' E 001°39'917.1
2017-Dec-04 07:00N 51°04' E 001°28'611.4
2017-Dec-04 06:29N 51°07' E 001°20'0 0.0
2017-Dec-04 05:59N 51°07' E 001°20'0 0.0
2017-Dec-04 05:28N 51°07' E 001°20'4 8.1
2017-Dec-04 05:00N 51°06' E 001°26'917.8
2017-Dec-04 04:31N 51°01' E 001°38'816.8
2017-Dec-04 04:01N 50°58' E 001°50'1 2.1
2017-Dec-04 03:30N 50°58' E 001°52'0 0.0
2017-Dec-04 03:00N 50°58' E 001°52'0 0.0
2017-Dec-04 02:30N 50°58' E 001°52'5 9.3
2017-Dec-04 02:00N 50°58' E 001°44'918.6
2017-Dec-04 01:30N 51°03' E 001°32'917.5
2017-Dec-04 01:00N 51°07' E 001°20'0 0.2
2017-Dec-04 00:30N 51°07' E 001°20'1 2.4
2017-Dec-04 00:01N 51°07' E 001°22'816.3
2017-Dec-03 23:30N 51°05' E 001°34'917.2
2017-Dec-03 23:00N 50°59' E 001°44'5 9.4
2017-Dec-03 22:29N 50°58' E 001°52'0 0.0
2017-Dec-03 22:00N 50°58' E 001°52'1 2.2
2017-Dec-03 21:30N 50°58' E 001°50'816.4
2017-Dec-03 21:01N 51°01' E 001°38'815.9
2017-Dec-03 20:30N 51°05' E 001°27'5 7.7
2017-Dec-03 19:52N 51°07' E 001°20'0 0.0
2017-Dec-03 19:26N 51°07' E 001°20'4 9.3
2017-Dec-03 19:00N 51°06' E 001°26'917.8
2017-Dec-03 18:30N 51°01' E 001°38'816.7
2017-Dec-03 18:00N 50°58' E 001°50'0 0.8
2017-Dec-03 17:30N 50°58' E 001°51'1 1.7
2017-Dec-03 17:00N 50°58' E 001°50'815.6
2017-Dec-03 16:30N 50°59' E 001°37'918.1
2017-Dec-03 16:01N 51°06' E 001°27'5 4.4
2017-Dec-03 14:56N 51°07' E 001°20'512.9
2017-Dec-03 14:31N 51°06' E 001°28'917.3
2017-Dec-03 14:01N 51°01' E 001°40'714.8
2017-Dec-03 13:30N 50°58' E 001°51'1 1.0
2017-Dec-03 12:59N 50°58' E 001°52'0 0.1
2017-Dec-03 12:30N 50°58' E 001°52'816.3
2017-Dec-03 12:00N 50°58' E 001°39'918.5
2017-Dec-03 11:30N 51°04' E 001°28'6 5.1
2017-Dec-03 10:26N 51°07' E 001°20'613.9
2017-Dec-03 10:01N 51°05' E 001°29'917.7
2017-Dec-03 09:31N 50°60' E 001°40'714.0
2017-Dec-03 09:01N 50°58' E 001°51'0 0.4
2017-Dec-03 08:30N 50°58' E 001°51'1 2.3
2017-Dec-03 08:00N 50°58' E 001°49'816.4
2017-Dec-03 07:30N 50°59' E 001°36'917.5
2017-Dec-03 07:00N 51°04' E 001°26'5 7.7
2017-Dec-03 06:24N 51°07' E 001°20'0 0.0
2017-Dec-03 05:14N 51°07' E 001°20'1 5.4
2017-Dec-03 05:00N 51°07' E 001°22'917.4
2017-Dec-03 04:31N 51°05' E 001°35'816.3
2017-Dec-03 04:00N 50°59' E 001°44'5 9.8
2017-Dec-03 03:30N 50°58' E 001°51'0 0.0
2017-Dec-03 03:00N 50°58' E 001°51'0 0.0
2017-Dec-03 02:30N 50°58' E 001°51'510.5
2017-Dec-03 02:00N 50°58' E 001°43'917.0
2017-Dec-03 01:30N 51°02' E 001°32'915.9
2017-Dec-03 00:57N 51°07' E 001°20'0 0.1
2017-Dec-03 00:19N 51°07' E 001°20'0 0.8
2017-Dec-02 23:59N 51°07' E 001°20'715.1
2017-Dec-02 23:30N 51°05' E 001°32'917.8
2017-Dec-02 23:01N 50°60' E 001°42'610.4
2017-Dec-02 22:28N 50°58' E 001°51'0 0.0
2017-Dec-02 22:00N 50°58' E 001°51'1 2.2
2017-Dec-02 21:30N 50°58' E 001°49'1019.1
2017-Dec-02 21:01N 50°60' E 001°34'918.6
2017-Dec-02 20:31N 51°06' E 001°23'3 3.8
2017-Dec-02 19:50N 51°07' E 001°20'0 0.0
2017-Dec-02 19:26N 51°07' E 001°20'511.7
2017-Dec-02 19:00N 51°06' E 001°28'918.5
2017-Dec-02 18:30N 51°01' E 001°40'714.9
2017-Dec-02 18:01N 50°58' E 001°51'0 0.4
2017-Dec-02 17:30N 50°58' E 001°51'1 1.8
2017-Dec-02 17:01N 50°58' E 001°50'815.8
2017-Dec-02 16:31N 50°60' E 001°37'917.9
2017-Dec-02 16:00N 51°05' E 001°26'4 8.5
2017-Dec-02 15:30N 51°07' E 001°20'0 0.2
2017-Dec-02 14:52N 51°07' E 001°20'514.1
2017-Dec-02 14:31N 51°06' E 001°28'918.5
2017-Dec-02 14:01N 51°01' E 001°40'714.5
2017-Dec-02 13:31N 50°58' E 001°51'0 0.1
2017-Dec-02 12:58N 50°58' E 001°51'3 5.5
2017-Dec-02 12:30N 50°58' E 001°47'918.1
2017-Dec-02 12:00N 51°01' E 001°34'918.4
2017-Dec-02 11:30N 51°06' E 001°21'1 1.1
2017-Dec-02 10:30N 51°07' E 001°20'714.0
2017-Dec-02 10:01N 51°06' E 001°31'917.3
2017-Dec-02 09:30N 51°01' E 001°42'612.3
2017-Dec-02 09:01N 50°58' E 001°51'0 0.3
2017-Dec-02 08:30N 50°58' E 001°51'0 0.2
2017-Dec-02 07:59N 50°58' E 001°51'715.3
2017-Dec-02 07:31N 50°59' E 001°40'917.4
2017-Dec-02 07:00N 51°04' E 001°28'611.5
2017-Dec-02 06:29N 51°07' E 001°20'0 0.0
2017-Dec-02 05:31N 51°07' E 001°20'0 0.0
2017-Dec-02 05:24N 51°07' E 001°20'3 8.1
2017-Dec-02 05:00N 51°06' E 001°25'714.9
2017-Dec-02 04:30N 51°02' E 001°34'815.7
2017-Dec-02 04:00N 50°58' E 001°45'4 7.1
2017-Dec-02 03:30N 50°58' E 001°51'0 0.0
2017-Dec-02 02:59N 50°58' E 001°51'0 0.1
2017-Dec-02 02:30N 50°58' E 001°51'713.6
2017-Dec-02 02:00N 50°58' E 001°40'816.9
2017-Dec-02 01:30N 51°02' E 001°29'714.2
2017-Dec-02 00:59N 51°07' E 001°20'0 0.0
2017-Dec-02 00:30N 51°07' E 001°20'1 1.6
2017-Dec-02 00:00N 51°07' E 001°21'816.3
2017-Dec-01 23:30N 51°05' E 001°34'817.0
2017-Dec-01 23:00N 50°59' E 001°44'5 8.8
2017-Dec-01 22:28N 50°58' E 001°51'0 0.0
2017-Dec-01 21:58N 50°58' E 001°51'1737.7
2017-Dec-01 21:30N 51°04' E 001°25'4 7.1
2017-Dec-01 21:00N 51°02' E 001°30'7 4.8
2017-Dec-01 19:36N 51°07' E 001°22'217.6
2017-Dec-01 19:30N 51°07' E 001°25'917.3
2017-Dec-01 19:00N 51°02' E 001°37'917.1
2017-Dec-01 18:30N 50°58' E 001°49'1 2.7
2017-Dec-01 18:00N 50°58' E 001°51'0 0.2
2017-Dec-01 17:27N 50°58' E 001°51'613.4
2017-Dec-01 17:01N 50°58' E 001°42'  

Dump ship's entire track history